KAQO

Llano Municipal Airport

Llano, Texas, USA
METAR KAQO 170215Z AUTO 12004KT 5SM BR OVC023 07/07 A3006 RMK AO2
Observed Flight Rules
Dec-17 @ 02:15 UTC (18 minutes ago) Marginal Visual Flight Rules
Wind Visibility Clouds Conditions
120° at 4 knots 5 miles
  • Overcast at 2,300' AGL
  • Mist
Temperatures Readings
Current 7°C / 45°F
Dewpoint 7°C / 45°F
Humidity 100%
Altimeter 30.06" Hg
Pressure 1018 hPa
Elevation 336
METAR KAQO 170215Z AUTO 12004KT 5SM BR OVC023 07/07 A3006 RMK AO2
Observed Flight Rules
Dec-17 @ 02:15 UTC
(18 minutes ago)
MVFR
Wind Visibility
120° at 4 knots 5 miles
Clouds
  • Overcast at 2,300' AGL
Conditions
  • Mist
Temperature Dewpoint
7°C / 45°F 7°C / 45°F
Humidity Altimeter Pressure
100% 30.06" Hg 1018 hPa